Terminal Aerodrome Forecast
Issued by NWS Pittsburgh, PA

Home | Current Version | Previous Version | Text Only | Print | Product List | Glossary On
Versions: 1 2 3 4 5 6 7 8 9 10 11 12 13 14 15 16 17 18 19 20 21 22 23 24 25
000
FTUS41 KPBZ 271400 AAA
TAFPIT
TAF AMD
KPIT 271451Z 2715/2818 25003KT P6SM SCT040
     FM271800 29005KT P6SM VCSH BKN040
     FM272200 32008KT P6SM BKN035
     FM280400 34005KT P6SM SCT035=

USA.gov is the U.S. government's official web portal to all federal, state and local government web resources and services.